Time;durP1;ratioP1;P1;durP2;ratioP2;P2;SDS_P1;SDS_P2;PMS_P1;PMS_P2;Temp;Humidity;BMP_temperature;BMP_pressure;BME280_temperature;BME280_humidity;BME280_pressure;Samples;Min_cycle;Max_cycle;Signal;HPM_P1;HPM_P2
2021/04/30 00:01:12;;;;;;;6.00;4.20;;;;;;;6.17;84.00;100102.44;128362;1101;62321;-76
2021/04/30 00:03:41;;;;;;;5.93;4.07;;;;;;;6.16;84.60;100106.03;128376;1101;63684;-77
2021/04/30 00:06:08;;;;;;;7.07;5.47;;;;;;;6.18;84.16;100101.44;128361;1101;62073;-77
2021/04/30 00:08:34;;;;;;;6.87;3.90;;;;;;;6.20;84.11;100093.38;128332;1101;62905;-77
2021/04/30 00:11:01;;;;;;;5.37;4.53;;;;;;;6.22;83.99;100100.13;128421;1101;62141;-77
2021/04/30 00:13:28;;;;;;;5.83;4.10;;;;;;;6.24;84.53;100094.70;128380;1101;62297;-76
2021/04/30 00:15:55;;;;;;;6.23;4.73;;;;;;;6.25;84.78;100096.38;128349;1101;62788;-76
2021/04/30 00:18:22;;;;;;;9.57;6.57;;;;;;;6.27;84.42;100094.41;128290;1100;62561;-74
2021/04/30 00:20:54;;;;;;;6.97;5.10;;;;;;;6.23;84.41;100087.80;128444;1101;62244;-74
2021/04/30 00:23:28;;;;;;;8.33;6.43;;;;;;;6.33;83.85;100094.58;128390;1101;62272;-75
2021/04/30 00:25:59;;;;;;;5.60;3.47;;;;;;;6.33;84.30;100109.53;128392;1101;63146;-75
2021/04/30 00:28:26;;;;;;;6.17;4.33;;;;;;;6.35;83.98;100107.56;128401;1101;62261;-75
2021/04/30 00:30:54;;;;;;;7.63;5.43;;;;;;;6.36;84.10;100109.23;128340;1101;62212;-75
2021/04/30 00:33:21;;;;;;;8.33;6.33;;;;;;;6.37;84.67;100104.77;128377;1101;62159;-75
2021/04/30 00:35:49;;;;;;;7.60;4.93;;;;;;;6.38;84.91;100111.70;128375;1101;63149;-74
2021/04/30 00:38:16;;;;;;;9.97;7.43;;;;;;;6.40;85.10;100110.55;128338;1101;62090;-75
2021/04/30 00:40:43;;;;;;;8.17;6.47;;;;;;;6.39;85.33;100114.16;128297;1101;62817;-75
2021/04/30 00:43:13;;;;;;;8.37;5.40;;;;;;;6.40;85.79;100112.38;128381;1101;62584;-75
2021/04/30 00:45:39;;;;;;;6.07;4.10;;;;;;;6.38;86.03;100104.63;128387;1101;62089;-75
2021/04/30 00:48:09;;;;;;;10.13;6.10;;;;;;;6.36;85.83;100111.86;128370;1101;62458;-75
2021/04/30 00:50:35;;;;;;;9.70;7.27;;;;;;;6.37;86.06;100113.50;128454;1101;62035;-76
2021/04/30 00:53:02;;;;;;;9.10;7.33;;;;;;;6.37;85.92;100113.50;128354;1101;62469;-76
2021/04/30 00:55:29;;;;;;;6.30;4.70;;;;;;;6.39;86.46;100118.61;128335;1101;62079;-75
2021/04/30 00:58:01;;;;;;;7.10;4.67;;;;;;;6.41;85.93;100124.55;128433;1101;62434;-76
2021/04/30 01:00:31;;;;;;;8.60;6.33;;;;;;;6.44;85.84;100124.20;128321;1101;62235;-74
2021/04/30 01:02:57;;;;;;;7.80;5.67;;;;;;;6.46;86.01;100125.72;128332;1101;62310;-74
2021/04/30 01:05:24;;;;;;;9.23;6.87;;;;;;;6.46;86.40;100125.72;128323;1101;62817;-75
2021/04/30 01:07:51;;;;;;;12.73;6.93;;;;;;;6.49;86.04;100135.10;128298;1101;62855;-76
2021/04/30 01:10:19;;;;;;;9.47;6.90;;;;;;;6.50;85.76;100137.58;128089;1101;62244;-75
2021/04/30 01:12:46;;;;;;;8.83;6.17;;;;;;;6.52;86.40;100145.30;128407;1101;62280;-76
2021/04/30 01:15:15;;;;;;;11.67;7.07;;;;;;;6.53;86.33;100142.52;128353;1101;62266;-75
2021/04/30 01:17:41;;;;;;;9.07;6.53;;;;;;;6.55;86.33;100146.81;128402;1101;62818;-76
2021/04/30 01:20:11;;;;;;;10.00;6.90;;;;;;;6.54;86.68;100143.33;128365;1101;62665;-75
2021/04/30 01:22:42;;;;;;;7.23;5.67;;;;;;;6.55;86.90;100138.91;128379;1101;62007;-76
2021/04/30 01:25:15;;;;;;;13.50;8.17;;;;;;;6.56;86.86;100151.08;128351;1101;62747;-76
2021/04/30 01:27:43;;;;;;;10.87;7.73;;;;;;;6.58;87.20;100159.66;128320;1101;62110;-75
2021/04/30 01:30:33;;;;;;;7.00;4.57;;;;;;;6.58;86.99;100167.56;128399;1101;63885;-75
2021/04/30 01:33:00;;;;;;;9.73;7.13;;;;;;;6.60;86.87;100169.04;128298;1101;62276;-75
2021/04/30 01:35:31;;;;;;;10.23;6.37;;;;;;;6.61;86.60;100169.86;128324;1101;62234;-74
2021/04/30 01:37:59;;;;;;;10.60;7.23;;;;;;;6.61;87.11;100175.98;128321;1101;63339;-75
2021/04/30 01:40:29;;;;;;;10.87;7.77;;;;;;;6.61;87.13;100169.86;128362;1101;62145;-74
2021/04/30 01:43:05;;;;;;;9.17;6.03;;;;;;;6.60;87.10;100174.31;128371;1101;62070;-74
2021/04/30 01:45:36;;;;;;;12.00;8.93;;;;;;;6.61;87.41;100178.61;128346;1101;62257;-74
2021/04/30 01:48:12;;;;;;;10.17;5.03;;;;;;;6.60;88.00;100189.30;128344;1101;62229;-74
2021/04/30 01:50:39;;;;;;;13.60;9.13;;;;;;;6.63;87.77;100186.33;128353;1101;62363;-75
2021/04/30 01:53:10;;;;;;;11.33;8.83;;;;;;;6.64;88.08;100180.09;128374;1101;62062;-75
2021/04/30 01:55:37;;;;;;;13.40;9.30;;;;;;;6.66;87.65;100189.48;128390;1101;62868;-75
2021/04/30 01:58:04;;;;;;;8.70;5.60;;;;;;;6.69;87.37;100198.87;128359;1101;62118;-74
2021/04/30 02:00:32;;;;;;;10.90;6.30;;;;;;;6.67;87.67;100193.78;128350;1101;62433;-75
2021/04/30 02:02:59;;;;;;;15.63;10.70;;;;;;;6.66;87.93;100196.57;128333;1101;62846;-75
2021/04/30 02:05:29;;;;;;;10.10;6.53;;;;;;;6.65;88.33;100202.81;128414;1101;62104;-74
2021/04/30 02:08:01;;;;;;;16.10;10.07;;;;;;;6.67;87.85;100203.48;128392;1101;62033;-75
2021/04/30 02:10:28;;;;;;;11.10;5.80;;;;;;;6.67;88.38;100208.75;128401;1101;62224;-75
2021/04/30 02:12:55;;;;;;;15.43;10.13;;;;;;;6.66;87.98;100204.48;128276;1101;62115;-75
2021/04/30 02:15:24;;;;;;;13.73;9.57;;;;;;;6.66;88.65;100209.75;128127;1102;62065;-75
2021/04/30 02:17:51;;;;;;;14.17;9.73;;;;;;;6.66;89.05;100226.38;128348;1101;62591;-74
2021/04/30 02:20:20;;;;;;;13.23;7.53;;;;;;;6.65;88.73;100218.63;128322;1101;62863;-75
2021/04/30 02:22:47;;;;;;;12.37;6.60;;;;;;;6.65;89.39;100221.26;128313;1101;62164;-75
2021/04/30 02:25:15;;;;;;;13.13;9.20;;;;;;;6.66;88.72;100228.20;128435;1101;62015;-75
2021/04/30 02:27:42;;;;;;;12.90;8.23;;;;;;;6.64;89.48;100232.80;128431;1101;62683;-75
2021/04/30 02:30:11;;;;;;;14.43;9.23;;;;;;;6.64;89.27;100238.08;128400;1101;62228;-74
2021/04/30 02:32:38;;;;;;;15.33;8.93;;;;;;;6.65;88.85;100229.17;128369;1101;62178;-75
2021/04/30 02:35:14;;;;;;;13.13;7.20;;;;;;;6.68;89.27;100239.41;128411;1101;62082;-75
2021/04/30 02:37:41;;;;;;;18.13;12.07;;;;;;;6.70;88.63;100238.25;128423;1101;62338;-75
2021/04/30 02:40:10;;;;;;;16.73;11.27;;;;;;;6.73;88.28;100240.55;128397;1101;62290;-75
2021/04/30 02:42:37;;;;;;;13.90;8.10;;;;;;;6.73;88.31;100239.73;128437;1101;62063;-75
2021/04/30 02:45:06;;;;;;;11.37;8.37;;;;;;;6.72;88.01;100246.01;128379;1101;62866;-75
2021/04/30 02:47:34;;;;;;;13.20;9.13;;;;;;;6.70;87.35;100243.52;128136;1101;62349;-75
2021/04/30 02:50:03;;;;;;;15.10;9.93;;;;;;;6.69;87.44;100247.16;128367;1101;62312;-75
2021/04/30 02:52:30;;;;;;;12.60;8.17;;;;;;;6.68;86.73;100250.77;128413;1101;62263;-75
2021/04/30 02:54:56;;;;;;;15.20;10.50;;;;;;;6.68;87.15;100252.58;128390;1101;62983;-75
2021/04/30 02:57:24;;;;;;;14.30;8.67;;;;;;;6.69;87.27;100251.58;128394;1101;62421;-75
2021/04/30 02:59:51;;;;;;;16.97;10.50;;;;;;;6.68;86.75;100252.58;128363;1101;62084;-75
2021/04/30 03:02:18;;;;;;;12.63;7.87;;;;;;;6.67;86.30;100258.83;128395;1101;62142;-75
2021/04/30 03:04:45;;;;;;;15.43;10.03;;;;;;;6.66;86.13;100257.19;128346;1101;62353;-75
2021/04/30 03:07:12;;;;;;;13.00;8.63;;;;;;;6.66;86.27;100257.19;128102;1103;62386;-75
2021/04/30 03:09:38;;;;;;;13.93;8.77;;;;;;;6.66;86.81;100268.55;128347;1101;62166;-75
2021/04/30 03:12:05;;;;;;;14.97;8.70;;;;;;;6.66;86.50;100265.09;128201;1101;62426;-75
2021/04/30 03:14:33;;;;;;;13.67;9.90;;;;;;;6.64;86.23;100269.70;128381;1101;62137;-75
2021/04/30 03:16:59;;;;;;;12.20;8.80;;;;;;;6.65;86.29;100276.61;128089;1101;62311;-75
2021/04/30 03:19:26;;;;;;;18.27;12.17;;;;;;;6.64;86.46;100274.97;128349;1101;63640;-75
2021/04/30 03:21:53;;;;;;;16.90;10.97;;;;;;;6.64;86.15;100277.61;128377;1101;62772;-75
2021/04/30 03:24:19;;;;;;;18.40;10.83;;;;;;;6.64;86.40;100277.61;128326;1101;63173;-76
2021/04/30 03:26:47;;;;;;;16.90;10.47;;;;;;;6.64;86.14;100280.25;128364;1101;61976;-75
2021/04/30 03:29:13;;;;;;;16.73;10.90;;;;;;;6.65;86.09;100279.25;128357;1101;62091;-76
2021/04/30 03:31:40;;;;;;;15.17;10.70;;;;;;;6.67;85.91;100277.28;128436;1101;62315;-76
2021/04/30 03:34:07;;;;;;;15.87;10.87;;;;;;;6.66;85.91;100280.91;128368;1101;62917;-75
2021/04/30 03:36:34;;;;;;;15.60;11.43;;;;;;;6.65;85.92;100272.19;128412;1101;62068;-76
2021/04/30 03:39:02;;;;;;;16.00;9.87;;;;;;;6.67;86.06;100279.91;128375;1101;62538;-76
2021/04/30 03:41:29;;;;;;;16.37;11.37;;;;;;;6.65;85.52;100287.15;128400;1101;62165;-76
2021/04/30 03:43:56;;;;;;;17.70;11.60;;;;;;;6.65;85.48;100288.00;128444;1101;62080;-76
2021/04/30 03:46:23;;;;;;;17.33;11.30;;;;;;;6.65;85.78;100292.42;128406;1101;62051;-76
2021/04/30 03:48:50;;;;;;;18.97;12.23;;;;;;;6.67;85.75;100295.73;128275;1101;62491;-76
2021/04/30 03:51:17;;;;;;;22.00;13.30;;;;;;;6.68;85.94;100294.76;128366;1101;61932;-77
2021/04/30 03:53:43;;;;;;;18.37;12.20;;;;;;;6.68;85.74;100297.39;128369;1101;62464;-76
2021/04/30 03:56:11;;;;;;;18.53;12.03;;;;;;;6.67;85.95;100295.73;128375;1101;62253;-75
2021/04/30 03:58:38;;;;;;;17.03;12.33;;;;;;;6.67;85.71;100296.58;128387;1101;62183;-75
2021/04/30 04:01:06;;;;;;;18.10;11.43;;;;;;;6.70;85.13;100304.16;128281;1101;62129;-75
2021/04/30 04:03:48;;;;;;;18.17;11.97;;;;;;;6.72;85.48;100311.91;128304;1101;62899;-75
2021/04/30 04:06:14;;;;;;;13.20;8.47;;;;;;;6.70;85.39;100301.52;128410;1101;62144;-75
2021/04/30 04:08:41;;;;;;;22.30;12.20;;;;;;;6.71;85.66;100304.97;128397;1101;61770;-75
2021/04/30 04:11:07;;;;;;;16.23;11.03;;;;;;;6.72;85.94;100304.00;128447;1101;62816;-75
2021/04/30 04:13:34;;;;;;;13.10;7.47;;;;;;;6.72;85.29;100315.36;128346;1101;62341;-75
2021/04/30 04:16:03;;;;;;;12.50;8.47;;;;;;;6.73;85.48;100318.81;128289;1101;62086;-75
2021/04/30 04:18:30;;;;;;;21.27;13.83;;;;;;;6.73;85.17;100324.09;128418;1101;63055;-75
2021/04/30 04:20:57;;;;;;;17.87;11.27;;;;;;;6.76;85.31;100331.70;128318;1101;62145;-75
2021/04/30 04:23:24;;;;;;;17.80;11.83;;;;;;;6.77;85.60;100322.79;128337;1101;62847;-75
2021/04/30 04:25:50;;;;;;;18.60;12.83;;;;;;;6.78;85.55;100334.15;128390;1101;62067;-76
2021/04/30 04:28:17;;;;;;;21.03;13.67;;;;;;;6.79;85.20;100327.91;128313;1101;64084;-76
2021/04/30 04:30:44;;;;;;;20.77;13.17;;;;;;;6.79;85.35;100325.27;128321;1101;64977;-75
2021/04/30 04:33:10;;;;;;;22.30;14.57;;;;;;;6.82;85.15;100333.70;128327;1101;62488;-75
2021/04/30 04:35:37;;;;;;;29.37;14.97;;;;;;;6.86;85.53;100344.73;128410;1101;62846;-76
2021/04/30 04:38:04;;;;;;;22.67;14.00;;;;;;;6.88;85.58;100343.58;128385;1101;62336;-76
2021/04/30 04:40:31;;;;;;;20.73;14.40;;;;;;;6.88;85.70;100348.85;128375;1101;62560;-76
2021/04/30 04:42:57;;;;;;;18.40;10.80;;;;;;;6.87;84.99;100349.85;128344;1101;62285;-74
2021/04/30 04:45:24;;;;;;;26.57;15.67;;;;;;;6.85;85.04;100357.09;128302;1101;62705;-76
2021/04/30 04:47:51;;;;;;;20.43;14.00;;;;;;;6.86;85.14;100368.46;128310;1101;63083;-76
2021/04/30 04:50:17;;;;;;;20.07;12.63;;;;;;;6.89;84.93;100358.44;128265;1101;63200;-75
2021/04/30 04:52:44;;;;;;;23.13;15.10;;;;;;;6.92;85.17;100367.83;128414;1101;61996;-74
2021/04/30 04:55:12;;;;;;;21.30;13.47;;;;;;;6.94;85.38;100371.14;128405;1101;62735;-75
2021/04/30 04:57:39;;;;;;;23.77;14.17;;;;;;;6.96;85.46;100376.26;128422;1101;62366;-74
2021/04/30 05:00:07;;;;;;;22.50;14.20;;;;;;;6.97;84.99;100375.25;128324;1101;62251;-76
2021/04/30 05:02:33;;;;;;;19.77;12.80;;;;;;;6.98;84.82;100384.84;128372;1101;62187;-73
2021/04/30 05:05:01;;;;;;;13.53;9.07;;;;;;;6.97;84.79;100385.80;128366;1101;62126;-75
2021/04/30 05:07:27;;;;;;;20.03;14.07;;;;;;;6.99;84.77;100389.11;128386;1101;63767;-74
2021/04/30 05:09:56;;;;;;;18.17;11.27;;;;;;;7.02;84.72;100394.91;128405;1101;62674;-75
2021/04/30 05:12:23;;;;;;;24.33;14.67;;;;;;;7.05;84.64;100393.75;128386;1101;62616;-74
2021/04/30 05:14:52;;;;;;;18.87;10.00;;;;;;;7.05;84.72;100394.57;128333;1101;62010;-75
2021/04/30 05:17:19;;;;;;;14.67;8.70;;;;;;;7.08;85.05;100399.55;128261;1101;64329;-77
2021/04/30 05:19:46;;;;;;;17.57;11.27;;;;;;;7.08;84.42;100393.45;128315;1101;62919;-76
2021/04/30 05:22:17;;;;;;;21.40;12.77;;;;;;;7.13;84.54;100399.06;128389;1101;62778;-76
2021/04/30 05:24:44;;;;;;;25.10;13.97;;;;;;;7.19;84.77;100410.80;128287;1101;62933;-81
2021/04/30 05:27:12;;;;;;;24.53;13.00;;;;;;;7.22;84.18;100411.28;128336;1101;62585;-75
2021/04/30 05:29:43;;;;;;;20.30;12.80;;;;;;;7.26;84.43;100411.80;127999;1101;64435;-76
2021/04/30 05:32:11;;;;;;;25.53;15.57;;;;;;;7.29;83.84;100422.87;128366;1101;62895;-76
2021/04/30 05:34:40;;;;;;;21.80;14.00;;;;;;;7.31;83.94;100423.53;128311;1100;62410;-76
2021/04/30 05:37:08;;;;;;;23.03;15.07;;;;;;;7.33;83.78;100432.12;128164;1101;62853;-76
2021/04/30 05:39:34;;;;;;;21.57;14.37;;;;;;;7.34;83.80;100435.58;128420;1101;62484;-76
2021/04/30 05:42:04;;;;;;;23.10;16.23;;;;;;;7.32;83.30;100438.36;128148;1102;62091;-76
2021/04/30 05:44:31;;;;;;;20.13;12.83;;;;;;;7.35;83.52;100437.21;128379;1101;62439;-76
2021/04/30 05:46:58;;;;;;;19.73;12.27;;;;;;;7.35;83.81;100435.42;128398;1101;62054;-76
2021/04/30 05:49:26;;;;;;;21.87;11.70;;;;;;;7.37;83.75;100434.42;128386;1101;62617;-76
2021/04/30 05:51:54;;;;;;;27.37;16.43;;;;;;;7.37;83.41;100437.06;128323;1101;62214;-78
2021/04/30 05:54:21;;;;;;;19.60;12.23;;;;;;;7.34;82.93;100436.39;128360;1101;62338;-78
2021/04/30 05:56:47;;;;;;;16.63;9.90;;;;;;;7.37;83.14;100431.78;128428;1101;63184;-78
2021/04/30 05:59:14;;;;;;;30.60;19.03;;;;;;;7.39;83.19;100437.73;128336;1101;62146;-78
2021/04/30 06:01:40;;;;;;;20.20;12.67;;;;;;;7.40;83.04;100444.67;128139;1101;62320;-80
2021/04/30 06:04:07;;;;;;;26.50;17.17;;;;;;;7.44;82.78;100445.98;128398;1101;62259;-80
2021/04/30 06:06:34;;;;;;;20.97;12.47;;;;;;;7.46;83.20;100451.92;128428;1101;62444;-80
2021/04/30 06:09:01;;;;;;;22.40;13.20;;;;;;;7.49;83.22;100456.90;128283;1101;62556;-77
2021/04/30 06:11:28;;;;;;;23.87;15.20;;;;;;;7.53;83.18;100455.59;128407;1101;64332;-81
2021/04/30 06:13:57;;;;;;;27.20;15.83;;;;;;;7.57;82.88;100466.66;128122;1101;62660;-80
2021/04/30 06:16:25;;;;;;;17.73;10.93;;;;;;;7.62;82.75;100465.17;128418;1101;62297;-81
2021/04/30 06:18:52;;;;;;;25.20;13.93;;;;;;;7.66;82.82;100469.14;128471;1101;62287;-80
2021/04/30 06:21:19;;;;;;;26.07;15.97;;;;;;;7.67;82.59;100473.45;128442;1101;62897;-80
2021/04/30 06:23:46;;;;;;;18.07;11.23;;;;;;;7.71;82.74;100474.78;128422;1101;62110;-80
2021/04/30 06:26:12;;;;;;;26.00;17.50;;;;;;;7.76;82.38;100469.83;128423;1101;62853;-82
2021/04/30 06:28:39;;;;;;;26.60;16.80;;;;;;;7.83;82.43;100477.11;128401;1101;62477;-81
2021/04/30 06:31:06;;;;;;;21.73;14.47;;;;;;;7.88;82.13;100470.33;128361;1101;63003;-81
2021/04/30 06:33:33;;;;;;;18.13;10.83;;;;;;;7.93;81.70;100472.51;128440;1101;62245;-82
2021/04/30 06:35:59;;;;;;;22.90;14.87;;;;;;;7.97;81.69;100471.20;128215;1102;62242;-82
2021/04/30 06:38:29;;;;;;;26.37;16.47;;;;;;;7.99;81.18;100477.14;128509;1101;62379;-81
2021/04/30 06:40:55;;;;;;;29.07;17.17;;;;;;;8.01;81.23;100466.39;128452;1101;62189;-78
2021/04/30 06:43:22;;;;;;;26.23;16.93;;;;;;;8.04;81.41;100469.55;128455;1101;62021;-78
2021/04/30 06:45:49;;;;;;;24.00;16.03;;;;;;;8.11;81.67;100465.23;128447;1101;62029;-79
2021/04/30 06:48:15;;;;;;;27.07;17.20;;;;;;;8.15;81.14;100463.92;128203;1101;62090;-78
2021/04/30 06:50:42;;;;;;;19.27;10.83;;;;;;;8.27;81.19;100474.19;128422;1101;62444;-78
2021/04/30 06:53:08;;;;;;;22.73;15.37;;;;;;;8.33;79.68;100479.63;128361;1101;62127;-80
2021/04/30 06:55:35;;;;;;;23.70;14.80;;;;;;;8.38;79.51;100487.06;128460;1101;62210;-81
2021/04/30 06:58:02;;;;;;;23.07;14.37;;;;;;;8.44;79.68;100483.79;128487;1101;62102;-81
2021/04/30 07:00:28;;;;;;;22.83;15.63;;;;;;;8.49;80.02;100485.93;128483;1101;62106;-80
2021/04/30 07:02:55;;;;;;;22.00;15.23;;;;;;;8.49;79.57;100484.10;128414;1101;62119;-79
2021/04/30 07:05:25;;;;;;;16.00;11.50;;;;;;;8.44;79.53;100486.44;128419;1101;62949;-77
2021/04/30 07:08:01;;;;;;;19.88;12.03;;;;;;;8.42;79.60;100488.41;128413;1101;62037;-77
2021/04/30 07:10:30;;;;;;;30.40;16.57;;;;;;;8.43;79.84;100492.70;128468;1101;62162;-77
2021/04/30 07:12:56;;;;;;;24.37;16.50;;;;;;;8.45;79.66;100488.06;128466;1101;62271;-78
2021/04/30 07:15:23;;;;;;;20.93;13.73;;;;;;;8.49;79.67;100478.81;128413;1101;62858;-78
2021/04/30 07:17:50;;;;;;;22.10;13.97;;;;;;;8.50;78.82;100480.48;128434;1101;62317;-77
2021/04/30 07:20:17;;;;;;;21.77;14.40;;;;;;;8.55;78.52;100483.44;128440;1101;62222;-78
2021/04/30 07:22:44;;;;;;;20.93;13.50;;;;;;;8.67;79.07;100491.87;128397;1101;62484;-77
2021/04/30 07:25:13;;;;;;;24.47;15.13;;;;;;;8.84;78.48;100482.09;128477;1101;62409;-77
2021/04/30 07:27:39;;;;;;;21.90;13.67;;;;;;;9.00;77.99;100488.33;128219;1102;62737;-77
2021/04/30 07:30:06;;;;;;;22.50;15.27;;;;;;;9.14;77.82;100488.45;128410;1101;62323;-78
2021/04/30 07:32:33;;;;;;;28.03;15.47;;;;;;;9.33;77.65;100489.05;128467;1101;62295;-77
2021/04/30 07:35:00;;;;;;;17.60;11.90;;;;;;;9.47;76.64;100495.42;128441;1101;62036;-78
2021/04/30 07:37:26;;;;;;;20.37;13.60;;;;;;;9.62;73.83;100495.52;128456;1101;62073;-77
2021/04/30 07:39:53;;;;;;;19.17;14.00;;;;;;;9.74;73.69;100499.44;128456;1101;62051;-78
2021/04/30 07:42:20;;;;;;;17.43;12.20;;;;;;;9.91;73.97;100500.16;128479;1101;62221;-79
2021/04/30 07:44:47;;;;;;;19.30;12.73;;;;;;;10.09;72.94;100503.33;128460;1101;62322;-80
2021/04/30 07:47:14;;;;;;;21.03;12.40;;;;;;;10.25;71.73;100509.55;128458;1101;62207;-77
2021/04/30 07:49:41;;;;;;;18.50;13.10;;;;;;;10.35;72.42;100508.33;128130;1102;62237;-76
2021/04/30 07:52:09;;;;;;;15.10;10.77;;;;;;;10.35;71.07;100507.52;128462;1101;62252;-76
2021/04/30 07:54:37;;;;;;;18.40;12.60;;;;;;;10.31;70.49;100516.83;128386;1101;62239;-77
2021/04/30 07:57:05;;;;;;;19.33;13.50;;;;;;;10.28;70.50;100520.59;128461;1101;62138;-76
2021/04/30 07:59:32;;;;;;;20.07;13.97;;;;;;;10.28;69.43;100517.95;128223;1102;63737;-77
2021/04/30 08:01:59;;;;;;;15.90;11.43;;;;;;;10.34;69.92;100516.45;128483;1101;62038;-77
2021/04/30 08:04:27;;;;;;;11.73;8.17;;;;;;;10.42;69.25;100519.05;128458;1101;62094;-77
2021/04/30 08:06:53;;;;;;;16.50;12.57;;;;;;;10.49;69.51;100519.97;128356;1101;62128;-77
2021/04/30 08:09:20;;;;;;;18.53;11.67;;;;;;;10.64;69.03;100519.19;128347;1101;62158;-76
2021/04/30 08:11:47;;;;;;;10.13;7.73;;;;;;;10.78;67.80;100513.09;128471;1101;63125;-77
2021/04/30 08:14:13;;;;;;;11.10;8.33;;;;;;;10.96;67.22;100528.66;128476;1101;61919;-76
2021/04/30 08:16:40;;;;;;;19.30;11.83;;;;;;;11.06;66.50;100526.57;128361;1101;62033;-76
2021/04/30 08:19:08;;;;;;;12.83;9.97;;;;;;;11.06;65.43;100529.22;128445;1101;62034;-78
2021/04/30 08:21:36;;;;;;;14.30;10.60;;;;;;;11.13;65.22;100538.09;128250;1101;62408;-79
2021/04/30 08:24:04;;;;;;;12.33;9.67;;;;;;;11.16;64.84;100543.06;128477;1101;62349;-78
2021/04/30 08:26:31;;;;;;;16.50;11.13;;;;;;;11.20;65.58;100538.22;128419;1101;62482;-79
2021/04/30 08:28:58;;;;;;;13.30;9.20;;;;;;;11.20;64.83;100533.72;128442;1101;62649;-79
2021/04/30 08:31:27;;;;;;;12.53;8.90;;;;;;;11.28;65.30;100530.14;128407;1101;62528;-79
2021/04/30 08:33:54;;;;;;;12.67;9.83;;;;;;;11.31;63.91;100532.44;128442;1101;62168;-78
2021/04/30 08:36:24;;;;;;;14.13;9.40;;;;;;;11.39;64.93;100537.66;128221;1102;62619;-80
2021/04/30 08:38:51;;;;;;;13.17;9.93;;;;;;;11.58;65.60;100530.95;128462;1101;62221;-80
2021/04/30 08:41:19;;;;;;;11.70;9.20;;;;;;;11.77;64.39;100541.99;128421;1101;62376;-79
2021/04/30 08:43:47;;;;;;;12.37;9.47;;;;;;;11.80;63.19;100550.42;128433;1101;62673;-79
2021/04/30 08:46:14;;;;;;;12.73;10.20;;;;;;;11.75;63.25;100536.89;128451;1101;62325;-79
2021/04/30 08:48:41;;;;;;;17.33;11.90;;;;;;;11.66;63.13;100543.30;128456;1101;62109;-79
2021/04/30 08:51:08;;;;;;;12.83;9.03;;;;;;;11.58;63.35;100546.90;128469;1101;61726;-78
2021/04/30 08:53:34;;;;;;;12.37;8.50;;;;;;;11.43;63.00;100546.91;128466;1101;62853;-78
2021/04/30 08:56:03;;;;;;;9.90;6.33;;;;;;;11.32;64.25;100555.32;128447;1101;62225;-79
2021/04/30 08:58:33;;;;;;;16.53;10.20;;;;;;;11.20;64.23;100554.16;128237;1102;61920;-79
2021/04/30 09:00:59;;;;;;;13.53;9.43;;;;;;;11.09;63.90;100559.89;128293;1101;62281;-79
2021/04/30 09:03:27;;;;;;;12.00;8.80;;;;;;;10.95;63.63;100554.39;128503;1101;62143;-82
2021/04/30 09:05:57;;;;;;;12.30;9.20;;;;;;;10.83;64.39;100563.78;128477;1101;62761;-79
2021/04/30 09:08:24;;;;;;;16.20;12.23;;;;;;;10.83;65.59;100565.62;128419;1101;62245;-78
2021/04/30 09:11:07;;;;;;;13.13;9.53;;;;;;;10.83;65.70;100558.47;128307;1101;61984;-78
2021/04/30 09:13:34;;;;;;;12.73;8.00;;;;;;;10.84;65.93;100568.10;128462;1101;62207;-78
2021/04/30 09:16:05;;;;;;;15.77;9.87;;;;;;;10.79;66.92;100558.00;128417;1101;62071;-78
2021/04/30 09:18:33;;;;;;;13.43;9.27;;;;;;;10.77;66.44;100554.73;128471;1101;62053;-78
2021/04/30 09:21:18;;;;;;;15.77;11.37;;;;;;;10.83;67.44;100558.47;128234;1101;62222;-77
2021/04/30 09:23:47;;;;;;;12.20;9.03;;;;;;;10.92;67.02;100562.72;128451;1101;62345;-79
2021/04/30 09:26:29;;;;;;;11.23;9.13;;;;;;;11.04;66.57;100564.92;128449;1101;62020;-76
2021/04/30 09:29:10;;;;;;;15.10;10.87;;;;;;;11.09;65.98;100567.85;128457;1101;62073;-74
2021/04/30 09:31:42;;;;;;;13.13;9.40;;;;;;;11.16;66.38;100558.17;128374;1101;64128;-75
2021/04/30 09:34:23;;;;;;;12.05;8.95;;;;;;;11.32;65.79;100567.78;128332;1101;63509;-74
2021/04/30 09:37:12;;;;;;;14.70;9.63;;;;;;;11.50;65.20;100562.12;128457;1101;62515;-73
2021/04/30 09:39:55;;;;;;;14.27;11.23;;;;;;;11.59;64.68;100563.66;128383;1101;62759;-75
2021/04/30 09:42:26;;;;;;;13.60;10.07;;;;;;;11.63;63.34;100565.75;128435;1101;62301;-71
2021/04/30 09:44:57;;;;;;;13.50;9.53;;;;;;;11.66;64.41;100561.08;128385;1101;62266;-73
2021/04/30 09:47:26;;;;;;;11.27;7.80;;;;;;;11.72;63.41;100568.31;128299;1101;62261;-73
2021/04/30 09:49:59;;;;;;;12.87;8.73;;;;;;;11.75;63.58;100566.12;128014;1101;63504;-73
2021/04/30 09:52:31;;;;;;;9.87;6.70;;;;;;;11.82;63.16;100566.20;128290;1101;62271;-74
2021/04/30 09:55:03;;;;;;;13.27;10.03;;;;;;;11.87;63.64;100565.63;128343;1101;64083;-72
2021/04/30 09:57:31;;;;;;;12.37;8.43;;;;;;;11.91;63.17;100566.94;128304;1101;62213;-74
2021/04/30 10:00:12;;;;;;;12.47;7.47;;;;;;;11.93;61.78;100559.60;128398;1101;62380;-74
2021/04/30 10:02:39;;;;;;;11.07;8.93;;;;;;;11.90;62.12;100565.27;128305;1101;62338;-73
2021/04/30 10:05:12;;;;;;;11.97;7.67;;;;;;;11.92;61.68;100568.57;128396;1101;62578;-74
2021/04/30 10:07:59;;;;;;;11.07;8.33;;;;;;;11.89;61.38;100564.46;128360;1101;62217;-75
2021/04/30 10:10:25;;;;;;;13.97;9.63;;;;;;;11.89;61.49;100571.62;128447;1101;62843;-75
2021/04/30 10:12:57;;;;;;;12.00;7.93;;;;;;;11.88;61.04;100572.58;128400;1101;62756;-74
2021/04/30 10:15:23;;;;;;;11.57;8.00;;;;;;;11.75;61.23;100573.25;128395;1101;62283;-74
2021/04/30 10:17:58;;;;;;;12.37;8.13;;;;;;;11.66;61.98;100566.39;128393;1101;62427;-74
2021/04/30 10:20:25;;;;;;;12.63;8.38;;;;;;;11.59;61.70;100568.97;128445;1101;62135;-74
2021/04/30 10:22:53;;;;;;;10.57;8.03;;;;;;;11.57;62.68;100576.30;128411;1101;62857;-80
2021/04/30 10:25:20;;;;;;;11.97;8.40;;;;;;;11.55;61.95;100578.31;128506;1101;62279;-80
2021/04/30 10:27:50;;;;;;;12.77;7.97;;;;;;;11.47;62.32;100575.75;128446;1101;62437;-81
2021/04/30 10:30:37;;;;;;;10.77;7.33;;;;;;;11.39;62.57;100580.16;128524;1101;62599;-80
2021/04/30 10:33:23;;;;;;;11.50;8.23;;;;;;;11.32;62.93;100587.19;128492;1101;62178;-80
2021/04/30 10:36:20;;;;;;;9.63;6.17;;;;;;;11.28;63.01;100582.43;128510;1101;62191;-80
2021/04/30 10:38:50;;;;;;;11.83;7.47;;;;;;;11.21;63.15;100591.12;128461;1101;62840;-81
2021/04/30 10:41:34;;;;;;;10.43;7.17;;;;;;;11.20;63.33;100586.02;128555;1101;62102;-80
2021/04/30 10:44:24;;;;;;;8.33;6.97;;;;;;;11.17;63.21;100586.36;128535;1101;62267;-81
2021/04/30 10:47:06;;;;;;;12.80;8.97;;;;;;;11.13;63.01;100583.23;128482;1101;62496;-81
2021/04/30 10:49:34;;;;;;;8.47;6.43;;;;;;;11.11;62.29;100587.89;128213;1101;62196;-80
2021/04/30 10:52:08;;;;;;;12.83;8.40;;;;;;;11.12;62.81;100584.25;128506;1101;62204;-76
2021/04/30 10:54:40;;;;;;;10.27;8.40;;;;;;;11.13;62.14;100583.23;128420;1101;62062;-77
2021/04/30 10:57:11;;;;;;;11.53;7.60;;;;;;;11.08;61.49;100590.11;128219;1102;62201;-78
2021/04/30 10:59:39;;;;;;;7.47;5.83;;;;;;;11.02;60.78;100584.50;128200;1102;62106;-77
2021/04/30 11:02:22;;;;;;;12.07;7.83;;;;;;;10.99;60.59;100586.71;128429;1100;61991;-77
2021/04/30 11:05:21;;;;;;;9.07;6.30;;;;;;;10.92;60.75;100581.30;128404;1101;62320;-78
2021/04/30 11:07:50;;;;;;;8.10;6.13;;;;;;;10.86;60.70;100589.98;128448;1101;62331;-78
2021/04/30 11:10:23;;;;;;;9.13;7.10;;;;;;;10.84;61.15;100588.48;128406;1101;62395;-77
2021/04/30 11:13:06;;;;;;;12.10;8.60;;;;;;;10.84;61.44;100591.14;128380;1101;62266;-77
2021/04/30 11:15:52;;;;;;;12.60;9.03;;;;;;;10.85;61.33;100588.31;128365;1101;62855;-76
2021/04/30 11:18:21;;;;;;;10.97;8.23;;;;;;;10.83;61.25;100592.97;128345;1101;64432;-75
2021/04/30 11:21:02;;;;;;;14.23;7.27;;;;;;;10.86;60.95;100589.98;128174;1101;63470;-77